Hafnia Mikala — 9HA4395 — position and weather

sailwx.info

Track history (hours):
 
Tides and Currents Weather Stations Pressure Air Temp Water Temp Dewpoint Dewpoint Depression Visibility Wind Speed Wind Dir Waves Ship Positions

Hafnia Mikala

Last reported at 2018-Feb-18 03:00 UTC. Time now 2018-Feb-18 03:26 UTC.
Position N 05°36' E 000°04'.

Length 183 m; draft 9 m.

Type: Tanker. MMSI: 249836000.

Date/timePositionNaut miles runAvg speedWind from/ knotsBaromVisibWave heightAir tempDewpointWater temp
2018-Feb-18 03:00N 05°36' E 000°04'0 0.0
2018-Feb-18 02:30N 05°36' E 000°04'0 0.0
2018-Feb-18 02:00N 05°36' E 000°04'0 0.0
2018-Feb-18 01:30N 05°36' E 000°04'0 0.0
2018-Feb-18 01:00N 05°36' E 000°04'0 0.0
2018-Feb-18 00:30N 05°36' E 000°04'0 0.0
2018-Feb-18 00:00N 05°36' E 000°04'0 0.0
2018-Feb-17 23:30N 05°36' E 000°04'0 0.0
2018-Feb-17 23:00N 05°36' E 000°04'0 0.0
2018-Feb-17 22:30N 05°36' E 000°04'0 0.1
2018-Feb-17 22:00N 05°36' E 000°04'0 0.9
2018-Feb-17 21:30N 05°36' E 000°04'1 2.4
2018-Feb-17 21:00N 05°35' E 000°05'510.5
2018-Feb-17 20:30N 05°32' E 000°10'612.2
2018-Feb-17 20:01N 05°28' E 000°14'611.9
2018-Feb-17 19:31N 05°28' E 000°20'611.8
2018-Feb-17 19:00N 05°28' E 000°26'611.8
2018-Feb-17 18:30N 05°28' E 000°32'611.7
2018-Feb-17 18:00N 05°28' E 000°38'49 4.0
2018-Feb-17 05:34N 06°00' E 001°16'0 1.8
2018-Feb-17 05:27N 06°01' E 001°16'4 0.4
2018-Feb-16 20:53N 06°04' E 001°14'0 0.0
2018-Feb-16 19:29N 06°04' E 001°14'0 0.0
2018-Feb-16 18:59N 06°04' E 001°14'0 0.0
2018-Feb-16 17:53N 06°04' E 001°14'0 0.0
2018-Feb-16 17:23N 06°04' E 001°14'0 0.0
2018-Feb-16 16:56N 06°04' E 001°14'0 0.0
2018-Feb-16 16:14N 06°04' E 001°14'3 0.1
2018-Feb-15 17:09N 06°01' E 001°15'7 0.7
2018-Feb-15 08:00N 06°01' E 001°22'612.0
2018-Feb-15 07:30N 05°55' E 001°24'2813.6
2018-Feb-15 05:29N 05°30' E 001°34'  
Track history (hours):
 
Tides and Currents Weather Stations Pressure Air Temp Water Temp Dewpoint Dewpoint Depression Visibility Wind Speed Wind Dir Waves Ship Positions

Hafnia Mikala

Last reported at 2018-Feb-18 03:00 UTC. Time now 2018-Feb-18 03:26 UTC.
Position N 05°36' E 000°04'.

Length 183 m; draft 9 m.

Type: Tanker. MMSI: 249836000.

Date/timePositionNaut miles runAvg speedWind from/ knotsBaromVisibWave heightAir tempDewpointWater temp
2018-Feb-18 03:00N 05°36' E 000°04'0 0.0
2018-Feb-18 02:30N 05°36' E 000°04'0 0.0
2018-Feb-18 02:00N 05°36' E 000°04'0 0.0
2018-Feb-18 01:30N 05°36' E 000°04'0 0.0
2018-Feb-18 01:00N 05°36' E 000°04'0 0.0
2018-Feb-18 00:30N 05°36' E 000°04'0 0.0
2018-Feb-18 00:00N 05°36' E 000°04'0 0.0
2018-Feb-17 23:30N 05°36' E 000°04'0 0.0
2018-Feb-17 23:00N 05°36' E 000°04'0 0.0
2018-Feb-17 22:30N 05°36' E 000°04'0 0.1
2018-Feb-17 22:00N 05°36' E 000°04'0 0.9
2018-Feb-17 21:30N 05°36' E 000°04'1 2.4
2018-Feb-17 21:00N 05°35' E 000°05'510.5
2018-Feb-17 20:30N 05°32' E 000°10'612.2
2018-Feb-17 20:01N 05°28' E 000°14'611.9
2018-Feb-17 19:31N 05°28' E 000°20'611.8
2018-Feb-17 19:00N 05°28' E 000°26'611.8
2018-Feb-17 18:30N 05°28' E 000°32'611.7
2018-Feb-17 18:00N 05°28' E 000°38'49 4.0
2018-Feb-17 05:34N 06°00' E 001°16'0 1.8
2018-Feb-17 05:27N 06°01' E 001°16'4 0.4
2018-Feb-16 20:53N 06°04' E 001°14'0 0.0
2018-Feb-16 19:29N 06°04' E 001°14'0 0.0
2018-Feb-16 18:59N 06°04' E 001°14'0 0.0
2018-Feb-16 17:53N 06°04' E 001°14'0 0.0
2018-Feb-16 17:23N 06°04' E 001°14'0 0.0
2018-Feb-16 16:56N 06°04' E 001°14'0 0.0
2018-Feb-16 16:14N 06°04' E 001°14'3 0.1
2018-Feb-15 17:09N 06°01' E 001°15'7 0.7
2018-Feb-15 08:00N 06°01' E 001°22'612.0
2018-Feb-15 07:30N 05°55' E 001°24'2813.6
2018-Feb-15 05:29N 05°30' E 001°34'  

Dump ship's entire track history